sensor_id;sensor_type;location;lat;lon;timestamp;pressure;altitude;pressure_sealevel;temperature
37452;BMP280;23314;51.114;6.900;2022-10-13T00:01:13;101774.22;;;12.39
37452;BMP280;23314;51.114;6.900;2022-10-13T00:03:39;101763.16;;;12.41
37452;BMP280;23314;51.114;6.900;2022-10-13T00:06:07;101768.88;;;12.43
37452;BMP280;23314;51.114;6.900;2022-10-13T00:08:34;101766.59;;;12.41
37452;BMP280;23314;51.114;6.900;2022-10-13T00:10:59;101767.75;;;12.40
37452;BMP280;23314;51.114;6.900;2022-10-13T00:13:25;101756.69;;;12.38
37452;BMP280;23314;51.114;6.900;2022-10-13T00:15:51;101769.28;;;12.37
37452;BMP280;23314;51.114;6.900;2022-10-13T00:18:16;101755.91;;;12.34
37452;BMP280;23314;51.114;6.900;2022-10-13T00:20:44;101757.09;;;12.33
37452;BMP280;23314;51.114;6.900;2022-10-13T00:23:10;101753.25;;;12.30
37452;BMP280;23314;51.114;6.900;2022-10-13T00:25:40;101759.00;;;12.29
37452;BMP280;23314;51.114;6.900;2022-10-13T00:28:06;101752.13;;;12.28
37452;BMP280;23314;51.114;6.900;2022-10-13T00:30:35;101753.69;;;12.25
37452;BMP280;23314;51.114;6.900;2022-10-13T00:33:00;101760.19;;;12.24
37452;BMP280;23314;51.114;6.900;2022-10-13T00:35:26;101753.28;;;12.23
37452;BMP280;23314;51.114;6.900;2022-10-13T00:37:51;101754.44;;;12.22
37452;BMP280;23314;51.114;6.900;2022-10-13T00:40:18;101749.88;;;12.19
37452;BMP280;23314;51.114;6.900;2022-10-13T00:42:43;101754.84;;;12.17
37452;BMP280;23314;51.114;6.900;2022-10-13T00:45:27;101758.28;;;12.14
37452;BMP280;23314;51.114;6.900;2022-10-13T00:47:57;101756.00;;;12.12
37452;BMP280;23314;51.114;6.900;2022-10-13T00:50:28;101750.28;;;12.10
37452;BMP280;23314;51.114;6.900;2022-10-13T00:52:55;101752.19;;;12.10
37452;BMP280;23314;51.114;6.900;2022-10-13T00:55:23;101739.59;;;12.10
37452;BMP280;23314;51.114;6.900;2022-10-13T01:00:23;101739.19;;;12.12
37452;BMP280;23314;51.114;6.900;2022-10-13T01:02:49;101732.66;;;12.13
37452;BMP280;23314;51.114;6.900;2022-10-13T01:05:15;101735.34;;;12.13
37452;BMP280;23314;51.114;6.900;2022-10-13T01:07:41;101736.53;;;12.12
37452;BMP280;23314;51.114;6.900;2022-10-13T01:10:06;101735.00;;;12.11
37452;BMP280;23314;51.114;6.900;2022-10-13T01:12:48;101731.56;;;12.10
37452;BMP280;23314;51.114;6.900;2022-10-13T01:15:39;101723.16;;;12.08
37452;BMP280;23314;51.114;6.900;2022-10-13T01:18:15;101720.84;;;12.06
37452;BMP280;23314;51.114;6.900;2022-10-13T01:26:21;101705.59;;;12.00
37452;BMP280;23314;51.114;6.900;2022-10-13T01:31:55;101698.72;;;12.02
37452;BMP280;23314;51.114;6.900;2022-10-13T01:34:33;101699.47;;;12.03
37452;BMP280;23314;51.114;6.900;2022-10-13T01:39:52;101702.91;;;12.03
37452;BMP280;23314;51.114;6.900;2022-10-13T01:42:21;101697.16;;;12.05
37452;BMP280;23314;51.114;6.900;2022-10-13T01:44:55;101697.16;;;12.05
37452;BMP280;23314;51.114;6.900;2022-10-13T01:47:24;101702.91;;;12.07
37452;BMP280;23314;51.114;6.900;2022-10-13T01:49:51;101693.72;;;12.08
37452;BMP280;23314;51.114;6.900;2022-10-13T01:52:19;101691.06;;;12.08
37452;BMP280;23314;51.114;6.900;2022-10-13T01:54:49;101699.47;;;12.10
37452;BMP280;23314;51.114;6.900;2022-10-13T01:57:29;101694.47;;;12.12
37452;BMP280;23314;51.114;6.900;2022-10-13T01:59:57;101697.91;;;12.13
37452;BMP280;23314;51.114;6.900;2022-10-13T02:02:33;101702.44;;;12.19
37452;BMP280;23314;51.114;6.900;2022-10-13T02:07:57;101681.38;;;12.32
37452;BMP280;23314;51.114;6.900;2022-10-13T02:13:10;101687.50;;;12.33
37452;BMP280;23314;51.114;6.900;2022-10-13T02:15:40;101686.34;;;12.34
37452;BMP280;23314;51.114;6.900;2022-10-13T02:18:08;101682.13;;;12.36
37452;BMP280;23314;51.114;6.900;2022-10-13T02:20:35;101678.31;;;12.37
37452;BMP280;23314;51.114;6.900;2022-10-13T02:23:03;101670.66;;;12.39
37452;BMP280;23314;51.114;6.900;2022-10-13T02:25:32;101677.53;;;12.41
37452;BMP280;23314;51.114;6.900;2022-10-13T02:28:00;101672.53;;;12.43
37452;BMP280;23314;51.114;6.900;2022-10-13T02:30:29;101673.28;;;12.43
37452;BMP280;23314;51.114;6.900;2022-10-13T02:32:54;101677.47;;;12.44
37452;BMP280;23314;51.114;6.900;2022-10-13T02:35:20;101673.28;;;12.47
37452;BMP280;23314;51.114;6.900;2022-10-13T02:37:46;101680.53;;;12.50
37452;BMP280;23314;51.114;6.900;2022-10-13T02:40:11;101677.06;;;12.53
37452;BMP280;23314;51.114;6.900;2022-10-13T02:42:37;101677.03;;;12.57
37452;BMP280;23314;51.114;6.900;2022-10-13T02:45:03;101673.22;;;12.58
37452;BMP280;23314;51.114;6.900;2022-10-13T02:47:29;101677.78;;;12.57
37452;BMP280;23314;51.114;6.900;2022-10-13T02:49:54;101673.22;;;12.58
37452;BMP280;23314;51.114;6.900;2022-10-13T02:52:19;101673.22;;;12.58
37452;BMP280;23314;51.114;6.900;2022-10-13T02:54:45;101677.00;;;12.60
37452;BMP280;23314;51.114;6.900;2022-10-13T02:57:10;101664.00;;;12.62
37452;BMP280;23314;51.114;6.900;2022-10-13T02:59:36;101676.97;;;12.67
37452;BMP280;23314;51.114;6.900;2022-10-13T03:02:01;101676.19;;;12.70
37452;BMP280;23314;51.114;6.900;2022-10-13T03:04:26;101674.25;;;12.71
37452;BMP280;23314;51.114;6.900;2022-10-13T03:06:51;101674.22;;;12.75
37452;BMP280;23314;51.114;6.900;2022-10-13T03:09:17;101670.75;;;12.78
37452;BMP280;23314;51.114;6.900;2022-10-13T03:11:42;101665.78;;;12.80
37452;BMP280;23314;51.114;6.900;2022-10-13T03:14:07;101658.53;;;12.80
37452;BMP280;23314;51.114;6.900;2022-10-13T03:16:33;101660.06;;;12.81
37452;BMP280;23314;51.114;6.900;2022-10-13T03:18:58;101664.63;;;12.81
37452;BMP280;23314;51.114;6.900;2022-10-13T03:21:23;101658.53;;;12.80
37452;BMP280;23314;51.114;6.900;2022-10-13T03:23:49;101653.53;;;12.79
37452;BMP280;23314;51.114;6.900;2022-10-13T03:26:14;101647.44;;;12.78
37452;BMP280;23314;51.114;6.900;2022-10-13T03:28:40;101655.13;;;12.76
37452;BMP280;23314;51.114;6.900;2022-10-13T03:31:07;101642.09;;;12.75
37452;BMP280;23314;51.114;6.900;2022-10-13T03:33:33;101645.19;;;12.73
37452;BMP280;23314;51.114;6.900;2022-10-13T03:36:03;101640.97;;;12.72
37452;BMP280;23314;51.114;6.900;2022-10-13T03:38:30;101640.59;;;12.70
37452;BMP280;23314;51.114;6.900;2022-10-13T03:40:56;101640.66;;;12.66
37452;BMP280;23314;51.114;6.900;2022-10-13T03:43:23;101624.97;;;12.65
37452;BMP280;23314;51.114;6.900;2022-10-13T03:45:59;101634.56;;;12.62
37452;BMP280;23314;51.114;6.900;2022-10-13T03:48:26;101632.28;;;12.61
37452;BMP280;23314;51.114;6.900;2022-10-13T03:50:54;101613.91;;;12.59
37452;BMP280;23314;51.114;6.900;2022-10-13T03:53:20;101617.75;;;12.58
37452;BMP280;23314;51.114;6.900;2022-10-13T03:58:22;101624.66;;;12.55
37452;BMP280;23314;51.114;6.900;2022-10-13T04:00:48;101621.63;;;12.53
37452;BMP280;23314;51.114;6.900;2022-10-13T04:03:14;101620.84;;;12.53
37452;BMP280;23314;51.114;6.900;2022-10-13T04:05:46;101618.56;;;12.51
37452;BMP280;23314;51.114;6.900;2022-10-13T04:08:15;101618.56;;;12.51
37452;BMP280;23314;51.114;6.900;2022-10-13T04:10:40;101623.91;;;12.51
37452;BMP280;23314;51.114;6.900;2022-10-13T04:13:06;101612.44;;;12.51
37452;BMP280;23314;51.114;6.900;2022-10-13T04:15:38;101623.91;;;12.51
37452;BMP280;23314;51.114;6.900;2022-10-13T04:18:05;101613.97;;;12.52
37452;BMP280;23314;51.114;6.900;2022-10-13T04:20:36;101613.22;;;12.51
37452;BMP280;23314;51.114;6.900;2022-10-13T04:23:01;101611.69;;;12.50
37452;BMP280;23314;51.114;6.900;2022-10-13T04:25:27;101618.97;;;12.50
37452;BMP280;23314;51.114;6.900;2022-10-13T04:27:52;101618.63;;;12.48
37452;BMP280;23314;51.114;6.900;2022-10-13T04:30:19;101609.41;;;12.49
37452;BMP280;23314;51.114;6.900;2022-10-13T04:32:45;101603.28;;;12.48
37452;BMP280;23314;51.114;6.900;2022-10-13T04:35:10;101604.06;;;12.49
37452;BMP280;23314;51.114;6.900;2022-10-13T04:37:36;101604.81;;;12.49
37452;BMP280;23314;51.114;6.900;2022-10-13T04:40:01;101607.47;;;12.49
37452;BMP280;23314;51.114;6.900;2022-10-13T04:42:27;101601.38;;;12.52
37452;BMP280;23314;51.114;6.900;2022-10-13T04:44:52;101605.16;;;12.55
37452;BMP280;23314;51.114;6.900;2022-10-13T04:47:17;101603.22;;;12.59
37452;BMP280;23314;51.114;6.900;2022-10-13T04:49:43;101606.66;;;12.60
37452;BMP280;23314;51.114;6.900;2022-10-13T04:52:08;101590.56;;;12.63
37452;BMP280;23314;51.114;6.900;2022-10-13T04:54:33;101596.66;;;12.67
37452;BMP280;23314;51.114;6.900;2022-10-13T04:56:59;101578.66;;;12.68
37452;BMP280;23314;51.114;6.900;2022-10-13T04:59:24;101592.06;;;12.68
37452;BMP280;23314;51.114;6.900;2022-10-13T05:01:50;101593.97;;;12.67
37452;BMP280;23314;51.114;6.900;2022-10-13T05:04:15;101595.13;;;12.66
37452;BMP280;23314;51.114;6.900;2022-10-13T05:06:41;101592.84;;;12.68
37452;BMP280;23314;51.114;6.900;2022-10-13T05:09:10;101584.81;;;12.68
37452;BMP280;23314;51.114;6.900;2022-10-13T05:11:38;101588.97;;;12.69
37452;BMP280;23314;51.114;6.900;2022-10-13T05:14:03;101596.25;;;12.69
37452;BMP280;23314;51.114;6.900;2022-10-13T05:16:28;101597.75;;;12.70
37452;BMP280;23314;51.114;6.900;2022-10-13T05:18:55;101596.59;;;12.71
37452;BMP280;23314;51.114;6.900;2022-10-13T05:21:26;101589.72;;;12.74
37452;BMP280;23314;51.114;6.900;2022-10-13T05:23:52;101583.19;;;12.75
37452;BMP280;23314;51.114;6.900;2022-10-13T05:26:18;101584.38;;;12.74
37452;BMP280;23314;51.114;6.900;2022-10-13T05:28:44;101579.41;;;12.72
37452;BMP280;23314;51.114;6.900;2022-10-13T05:31:22;101585.16;;;12.70
37452;BMP280;23314;51.114;6.900;2022-10-13T05:33:48;101589.72;;;12.70
37452;BMP280;23314;51.114;6.900;2022-10-13T05:36:19;101588.56;;;12.71
37452;BMP280;23314;51.114;6.900;2022-10-13T05:38:49;101582.03;;;12.76
37452;BMP280;23314;51.114;6.900;2022-10-13T05:41:16;101591.94;;;12.82
37452;BMP280;23314;51.114;6.900;2022-10-13T05:43:41;101572.75;;;12.87
37452;BMP280;23314;51.114;6.900;2022-10-13T05:46:07;101566.22;;;12.92
37452;BMP280;23314;51.114;6.900;2022-10-13T05:48:33;101557.78;;;12.94
37452;BMP280;23314;51.114;6.900;2022-10-13T05:51:00;101561.59;;;12.93
37452;BMP280;23314;51.114;6.900;2022-10-13T05:53:35;101568.53;;;12.86
37452;BMP280;23314;51.114;6.900;2022-10-13T05:56:07;101575.06;;;12.85
37452;BMP280;23314;51.114;6.900;2022-10-13T05:58:37;101574.31;;;12.85
37452;BMP280;23314;51.114;6.900;2022-10-13T06:01:10;101568.19;;;12.84
37452;BMP280;23314;51.114;6.900;2022-10-13T06:03:37;101564.03;;;12.83
37452;BMP280;23314;51.114;6.900;2022-10-13T06:06:04;101562.84;;;12.84
37452;BMP280;23314;51.114;6.900;2022-10-13T06:08:29;101557.16;;;12.82
37452;BMP280;23314;51.114;6.900;2022-10-13T06:10:55;101560.56;;;12.83
37452;BMP280;23314;51.114;6.900;2022-10-13T06:13:20;101549.47;;;12.84
37452;BMP280;23314;51.114;6.900;2022-10-13T06:15:46;101548.31;;;12.85
37452;BMP280;23314;51.114;6.900;2022-10-13T06:18:11;101553.25;;;12.87
37452;BMP280;23314;51.114;6.900;2022-10-13T06:20:37;101547.50;;;12.88
37452;BMP280;23314;51.114;6.900;2022-10-13T06:23:02;101550.50;;;12.91
37452;BMP280;23314;51.114;6.900;2022-10-13T06:25:28;101550.50;;;12.91
37452;BMP280;23314;51.114;6.900;2022-10-13T06:27:55;101547.47;;;12.92
37452;BMP280;23314;51.114;6.900;2022-10-13T06:30:21;101556.63;;;12.95
37452;BMP280;23314;51.114;6.900;2022-10-13T06:32:46;101557.41;;;12.95
37452;BMP280;23314;51.114;6.900;2022-10-13T06:35:12;101554.31;;;12.97
37452;BMP280;23314;51.114;6.900;2022-10-13T06:37:37;101560.00;;;12.99
37452;BMP280;23314;51.114;6.900;2022-10-13T06:40:02;101560.38;;;13.01
37452;BMP280;23314;51.114;6.900;2022-10-13T06:42:28;101555.75;;;13.05
37452;BMP280;23314;51.114;6.900;2022-10-13T06:44:56;101554.56;;;13.10
37452;BMP280;23314;51.114;6.900;2022-10-13T06:47:24;101548.38;;;13.13
37452;BMP280;23314;51.114;6.900;2022-10-13T06:49:50;101542.25;;;13.16
37452;BMP280;23314;51.114;6.900;2022-10-13T06:52:15;101541.47;;;13.15
37452;BMP280;23314;51.114;6.900;2022-10-13T06:54:40;101544.13;;;13.19
37452;BMP280;23314;51.114;6.900;2022-10-13T06:57:06;101544.88;;;13.19
37452;BMP280;23314;51.114;6.900;2022-10-13T06:59:31;101547.91;;;13.21
37452;BMP280;23314;51.114;6.900;2022-10-13T07:01:58;101547.09;;;13.25
37452;BMP280;23314;51.114;6.900;2022-10-13T07:04:23;101549.00;;;13.28
37452;BMP280;23314;51.114;6.900;2022-10-13T07:06:51;101560.81;;;13.34
37452;BMP280;23314;51.114;6.900;2022-10-13T07:09:16;101558.41;;;13.40
37452;BMP280;23314;51.114;6.900;2022-10-13T07:11:46;101551.41;;;13.49
37452;BMP280;23314;51.114;6.900;2022-10-13T07:14:12;101562.81;;;13.57
37452;BMP280;23314;51.114;6.900;2022-10-13T07:16:38;101557.69;;;13.66
37452;BMP280;23314;51.114;6.900;2022-10-13T07:19:03;101559.91;;;13.75
37452;BMP280;23314;51.114;6.900;2022-10-13T07:21:29;101554.03;;;13.84
37452;BMP280;23314;51.114;6.900;2022-10-13T07:23:54;101561.19;;;13.91
37452;BMP280;23314;51.114;6.900;2022-10-13T07:26:20;101562.19;;;14.00
37452;BMP280;23314;51.114;6.900;2022-10-13T07:28:45;101563.97;;;14.11
37452;BMP280;23314;51.114;6.900;2022-10-13T07:31:18;101555.00;;;14.21
37452;BMP280;23314;51.114;6.900;2022-10-13T07:33:46;101542.63;;;14.27
37452;BMP280;23314;51.114;6.900;2022-10-13T07:36:12;101552.06;;;14.35
37452;BMP280;23314;51.114;6.900;2022-10-13T07:38:38;101542.84;;;14.36
37452;BMP280;23314;51.114;6.900;2022-10-13T07:41:05;101534.41;;;14.38
37452;BMP280;23314;51.114;6.900;2022-10-13T07:43:31;101533.91;;;14.43
37452;BMP280;23314;51.114;6.900;2022-10-13T07:46:01;101542.63;;;14.51
37452;BMP280;23314;51.114;6.900;2022-10-13T07:48:29;101538.28;;;14.57
37452;BMP280;23314;51.114;6.900;2022-10-13T07:50:55;101543.47;;;14.68
37452;BMP280;23314;51.114;6.900;2022-10-13T07:53:20;101555.25;;;14.74
37452;BMP280;23314;51.114;6.900;2022-10-13T07:55:46;101548.91;;;14.84
37452;BMP280;23314;51.114;6.900;2022-10-13T07:58:11;101549.81;;;14.98
37452;BMP280;23314;51.114;6.900;2022-10-13T08:00:37;101547.66;;;15.09
37452;BMP280;23314;51.114;6.900;2022-10-13T08:03:02;101559.31;;;15.23
37452;BMP280;23314;51.114;6.900;2022-10-13T08:05:28;101554.41;;;15.38
37452;BMP280;23314;51.114;6.900;2022-10-13T08:07:53;101556.78;;;15.52
37452;BMP280;23314;51.114;6.900;2022-10-13T08:10:19;101553.69;;;15.70
37452;BMP280;23314;51.114;6.900;2022-10-13T08:12:45;101552.97;;;15.86
37452;BMP280;23314;51.114;6.900;2022-10-13T08:15:10;101554.13;;;16.01
37452;BMP280;23314;51.114;6.900;2022-10-13T08:17:36;101552.69;;;16.13
37452;BMP280;23314;51.114;6.900;2022-10-13T08:20:02;101549.72;;;16.24
37452;BMP280;23314;51.114;6.900;2022-10-13T08:22:28;101553.31;;;16.34
37452;BMP280;23314;51.114;6.900;2022-10-13T08:24:53;101557.09;;;16.36
37452;BMP280;23314;51.114;6.900;2022-10-13T08:27:21;101552.47;;;16.37
37452;BMP280;23314;51.114;6.900;2022-10-13T08:29:48;101555.16;;;16.37
37452;BMP280;23314;51.114;6.900;2022-10-13T08:32:13;101552.88;;;16.35
37452;BMP280;23314;51.114;6.900;2022-10-13T08:34:39;101550.97;;;16.36
37452;BMP280;23314;51.114;6.900;2022-10-13T08:37:04;101549.88;;;16.33
37452;BMP280;23314;51.114;6.900;2022-10-13T08:39:30;101542.88;;;16.36
37452;BMP280;23314;51.114;6.900;2022-10-13T08:41:55;101548.63;;;16.38
37452;BMP280;23314;51.114;6.900;2022-10-13T08:44:43;101546.91;;;16.44
37452;BMP280;23314;51.114;6.900;2022-10-13T08:47:12;101538.22;;;16.53
37452;BMP280;23314;51.114;6.900;2022-10-13T08:49:41;101543.16;;;16.54
37452;BMP280;23314;51.114;6.900;2022-10-13T08:52:16;101541.56;;;16.57
37452;BMP280;23314;51.114;6.900;2022-10-13T08:54:42;101542.44;;;16.67
37452;BMP280;23314;51.114;6.900;2022-10-13T08:57:09;101539.56;;;16.74
37452;BMP280;23314;51.114;6.900;2022-10-13T08:59:35;101537.00;;;16.83
37452;BMP280;23314;51.114;6.900;2022-10-13T09:02:04;101537.13;;;16.93
37452;BMP280;23314;51.114;6.900;2022-10-13T09:04:39;101533.03;;;17.01
37452;BMP280;23314;51.114;6.900;2022-10-13T09:09:35;101534.41;;;17.18
37452;BMP280;23314;51.114;6.900;2022-10-13T09:12:04;101542.53;;;17.31
37452;BMP280;23314;51.114;6.900;2022-10-13T09:14:31;101535.63;;;17.43
37452;BMP280;23314;51.114;6.900;2022-10-13T09:17:27;101539.22;;;17.53
37452;BMP280;23314;51.114;6.900;2022-10-13T09:20:04;101532.69;;;17.63
37452;BMP280;23314;51.114;6.900;2022-10-13T09:22:35;101535.81;;;17.75
37452;BMP280;23314;51.114;6.900;2022-10-13T09:30:41;101528.97;;;18.40
37452;BMP280;23314;51.114;6.900;2022-10-13T09:35:34;101520.44;;;18.73
37452;BMP280;23314;51.114;6.900;2022-10-13T09:38:18;101518.41;;;18.86
37452;BMP280;23314;51.114;6.900;2022-10-13T09:40:56;101513.34;;;18.98
37452;BMP280;23314;51.114;6.900;2022-10-13T09:43:33;101511.59;;;19.04
37452;BMP280;23314;51.114;6.900;2022-10-13T09:46:00;101512.22;;;19.08
37452;BMP280;23314;51.114;6.900;2022-10-13T09:48:32;101507.72;;;19.14
37452;BMP280;23314;51.114;6.900;2022-10-13T09:50:59;101509.22;;;19.24
37452;BMP280;23314;51.114;6.900;2022-10-13T09:53:34;101505.66;;;19.37
37452;BMP280;23314;51.114;6.900;2022-10-13T09:56:20;101508.53;;;19.52
37452;BMP280;23314;51.114;6.900;2022-10-13T09:58:54;101507.66;;;19.83
37452;BMP280;23314;51.114;6.900;2022-10-13T10:01:27;101503.28;;;20.04
37452;BMP280;23314;51.114;6.900;2022-10-13T10:03:55;101502.81;;;20.15
37452;BMP280;23314;51.114;6.900;2022-10-13T10:06:22;101500.66;;;20.28
37452;BMP280;23314;51.114;6.900;2022-10-13T10:08:56;101498.81;;;20.43
37452;BMP280;23314;51.114;6.900;2022-10-13T10:11:42;101492.13;;;20.63
37452;BMP280;23314;51.114;6.900;2022-10-13T10:14:29;101489.38;;;20.72
37452;BMP280;23314;51.114;6.900;2022-10-13T10:19:47;101489.50;;;20.78
37452;BMP280;23314;51.114;6.900;2022-10-13T10:30:59;101481.41;;;20.69
37452;BMP280;23314;51.114;6.900;2022-10-13T10:33:39;101479.00;;;20.71
37452;BMP280;23314;51.114;6.900;2022-10-13T10:36:17;101478.25;;;20.70
37452;BMP280;23314;51.114;6.900;2022-10-13T10:38:55;101468.47;;;20.63
37452;BMP280;23314;51.114;6.900;2022-10-13T10:44:09;101459.81;;;20.50
37452;BMP280;23314;51.114;6.900;2022-10-13T10:46:47;101460.75;;;20.38
37452;BMP280;23314;51.114;6.900;2022-10-13T10:49:17;101451.88;;;20.28
37452;BMP280;23314;51.114;6.900;2022-10-13T10:51:44;101457.94;;;20.23
37452;BMP280;23314;51.114;6.900;2022-10-13T10:54:22;101451.47;;;20.20
37452;BMP280;23314;51.114;6.900;2022-10-13T10:57:00;101443.16;;;20.24
37452;BMP280;23314;51.114;6.900;2022-10-13T11:00:05;101441.53;;;20.26
37452;BMP280;23314;51.114;6.900;2022-10-13T11:05:22;101438.91;;;20.41
37452;BMP280;23314;51.114;6.900;2022-10-13T11:07:54;101433.44;;;20.51
37452;BMP280;23314;51.114;6.900;2022-10-13T11:10:21;101424.16;;;20.67
37452;BMP280;23314;51.114;6.900;2022-10-13T11:15:20;101429.06;;;21.02
37452;BMP280;23314;51.114;6.900;2022-10-13T11:17:47;101426.69;;;21.19
37452;BMP280;23314;51.114;6.900;2022-10-13T11:25:33;101430.34;;;21.55
37452;BMP280;23314;51.114;6.900;2022-10-13T11:27:59;101427.22;;;21.62
37452;BMP280;23314;51.114;6.900;2022-10-13T11:30:40;101422.78;;;21.59
37452;BMP280;23314;51.114;6.900;2022-10-13T11:42:34;101418.94;;;21.26
37452;BMP280;23314;51.114;6.900;2022-10-13T11:45:12;101413.31;;;21.15
37452;BMP280;23314;51.114;6.900;2022-10-13T11:48:02;101414.31;;;21.03
37452;BMP280;23314;51.114;6.900;2022-10-13T11:50:36;101421.66;;;20.87
37452;BMP280;23314;51.114;6.900;2022-10-13T11:53:20;101419.63;;;20.73
37452;BMP280;23314;51.114;6.900;2022-10-13T11:55:57;101418.75;;;20.67
37452;BMP280;23314;51.114;6.900;2022-10-13T11:58:32;101421.53;;;20.57
37452;BMP280;23314;51.114;6.900;2022-10-13T12:01:11;101425.78;;;20.49
37452;BMP280;23314;51.114;6.900;2022-10-13T12:03:39;101423.88;;;20.40
37452;BMP280;23314;51.114;6.900;2022-10-13T12:06:36;101416.66;;;20.28
37452;BMP280;23314;51.114;6.900;2022-10-13T12:09:14;101416.84;;;20.15
37452;BMP280;23314;51.114;6.900;2022-10-13T12:11:40;101406.81;;;20.06
37452;BMP280;23314;51.114;6.900;2022-10-13T12:14:23;101406.53;;;20.04
37452;BMP280;23314;51.114;6.900;2022-10-13T12:16:57;101403.81;;;20.04
37452;BMP280;23314;51.114;6.900;2022-10-13T12:19:25;101406.22;;;20.02
37452;BMP280;23314;51.114;6.900;2022-10-13T12:21:53;101407.91;;;20.00
37452;BMP280;23314;51.114;6.900;2022-10-13T12:24:21;101403.06;;;20.04
37452;BMP280;23314;51.114;6.900;2022-10-13T12:26:48;101412.81;;;20.10
37452;BMP280;23314;51.114;6.900;2022-10-13T12:29:14;101409.63;;;20.21
37452;BMP280;23314;51.114;6.900;2022-10-13T12:31:43;101401.72;;;20.33
37452;BMP280;23314;51.114;6.900;2022-10-13T12:34:21;101401.88;;;20.38
37452;BMP280;23314;51.114;6.900;2022-10-13T12:36:57;101400.78;;;20.45
37452;BMP280;23314;51.114;6.900;2022-10-13T12:39:22;101403.50;;;20.45
37452;BMP280;23314;51.114;6.900;2022-10-13T12:41:49;101401.53;;;20.45
37452;BMP280;23314;51.114;6.900;2022-10-13T12:44:24;101396.81;;;20.55
37452;BMP280;23314;51.114;6.900;2022-10-13T12:46:52;101394.97;;;20.71
37452;BMP280;23314;51.114;6.900;2022-10-13T12:49:25;101394.22;;;20.85
37452;BMP280;23314;51.114;6.900;2022-10-13T12:51:57;101391.09;;;21.02
37452;BMP280;23314;51.114;6.900;2022-10-13T12:54:28;101391.72;;;21.21
37452;BMP280;23314;51.114;6.900;2022-10-13T12:56:57;101391.41;;;21.43
37452;BMP280;23314;51.114;6.900;2022-10-13T12:59:24;101396.63;;;21.61
37452;BMP280;23314;51.114;6.900;2022-10-13T13:01:59;101390.44;;;21.76
37452;BMP280;23314;51.114;6.900;2022-10-13T13:04:40;101394.47;;;21.80
37452;BMP280;23314;51.114;6.900;2022-10-13T13:09:59;101394.00;;;21.37
37452;BMP280;23314;51.114;6.900;2022-10-13T13:12:29;101388.69;;;21.19
37452;BMP280;23314;51.114;6.900;2022-10-13T13:14:55;101383.16;;;20.98
37452;BMP280;23314;51.114;6.900;2022-10-13T13:17:29;101382.81;;;20.81
37452;BMP280;23314;51.114;6.900;2022-10-13T13:19:55;101376.28;;;20.63
37452;BMP280;23314;51.114;6.900;2022-10-13T13:22:22;101366.75;;;20.53
37452;BMP280;23314;51.114;6.900;2022-10-13T13:24:51;101366.47;;;20.42
37452;BMP280;23314;51.114;6.900;2022-10-13T13:27:25;101374.50;;;20.36
37452;BMP280;23314;51.114;6.900;2022-10-13T13:29:52;101375.88;;;20.32
37452;BMP280;23314;51.114;6.900;2022-10-13T13:32:20;101379.66;;;20.25
37452;BMP280;23314;51.114;6.900;2022-10-13T13:34:47;101373.50;;;20.24
37452;BMP280;23314;51.114;6.900;2022-10-13T13:37:26;101359.94;;;20.24
37452;BMP280;23314;51.114;6.900;2022-10-13T13:39:52;101368.59;;;20.14
37452;BMP280;23314;51.114;6.900;2022-10-13T13:42:17;101367.50;;;20.11
37452;BMP280;23314;51.114;6.900;2022-10-13T13:44:43;101361.81;;;20.09
37452;BMP280;23314;51.114;6.900;2022-10-13T13:47:26;101366.50;;;19.99
37452;BMP280;23314;51.114;6.900;2022-10-13T13:49:53;101362.94;;;19.93
37452;BMP280;23314;51.114;6.900;2022-10-13T13:52:21;101361.69;;;19.94
37452;BMP280;23314;51.114;6.900;2022-10-13T13:54:47;101368.63;;;19.95
37452;BMP280;23314;51.114;6.900;2022-10-13T13:57:13;101369.38;;;19.95
37452;BMP280;23314;51.114;6.900;2022-10-13T13:59:39;101362.94;;;19.93
37452;BMP280;23314;51.114;6.900;2022-10-13T14:02:09;101367.56;;;19.92
37452;BMP280;23314;51.114;6.900;2022-10-13T14:04:35;101356.59;;;19.96
37452;BMP280;23314;51.114;6.900;2022-10-13T14:07:00;101359.28;;;19.96
37452;BMP280;23314;51.114;6.900;2022-10-13T14:09:26;101361.25;;;19.95
37452;BMP280;23314;51.114;6.900;2022-10-13T14:11:51;101349.53;;;19.89
37452;BMP280;23314;51.114;6.900;2022-10-13T14:14:16;101353.16;;;19.86
37452;BMP280;23314;51.114;6.900;2022-10-13T14:16:41;101352.09;;;19.84
37452;BMP280;23314;51.114;6.900;2022-10-13T14:19:07;101348.38;;;19.81
37452;BMP280;23314;51.114;6.900;2022-10-13T14:21:34;101346.88;;;19.80
37452;BMP280;23314;51.114;6.900;2022-10-13T14:24:00;101344.16;;;19.80
37452;BMP280;23314;51.114;6.900;2022-10-13T14:26:25;101338.47;;;19.78
37452;BMP280;23314;51.114;6.900;2022-10-13T14:28:51;101342.66;;;19.79
37452;BMP280;23314;51.114;6.900;2022-10-13T14:31:16;101341.91;;;19.78
37452;BMP280;23314;51.114;6.900;2022-10-13T14:33:41;101334.84;;;19.81
37452;BMP280;23314;51.114;6.900;2022-10-13T14:36:07;101336.59;;;19.84
37452;BMP280;23314;51.114;6.900;2022-10-13T14:38:33;101335.72;;;19.87
37452;BMP280;23314;51.114;6.900;2022-10-13T14:40:59;101339.47;;;19.90
37452;BMP280;23314;51.114;6.900;2022-10-13T14:43:26;101339.47;;;19.90
37452;BMP280;23314;51.114;6.900;2022-10-13T14:45:51;101331.94;;;19.85
37452;BMP280;23314;51.114;6.900;2022-10-13T14:48:16;101322.22;;;19.78
37452;BMP280;23314;51.114;6.900;2022-10-13T14:50:41;101329.44;;;19.72
37452;BMP280;23314;51.114;6.900;2022-10-13T14:53:07;101328.84;;;19.68
37452;BMP280;23314;51.114;6.900;2022-10-13T14:55:35;101324.19;;;19.68
37452;BMP280;23314;51.114;6.900;2022-10-13T14:58:01;101315.47;;;19.64
37452;BMP280;23314;51.114;6.900;2022-10-13T15:00:27;101315.50;;;19.55
37452;BMP280;23314;51.114;6.900;2022-10-13T15:02:52;101317.75;;;19.47
37452;BMP280;23314;51.114;6.900;2022-10-13T15:05:17;101311.44;;;19.41
37452;BMP280;23314;51.114;6.900;2022-10-13T15:07:43;101307.56;;;19.33
37452;BMP280;23314;51.114;6.900;2022-10-13T15:10:08;101305.00;;;19.29
37452;BMP280;23314;51.114;6.900;2022-10-13T15:12:34;101311.75;;;19.24
37452;BMP280;23314;51.114;6.900;2022-10-13T15:14:59;101303.53;;;19.19